createdAt,value
2019-06-26T00:01:06.721Z,6.33
2019-06-26T00:03:33.942Z,6.60
2019-06-26T00:06:01.821Z,6.90
2019-06-26T00:08:29.345Z,7.03
2019-06-26T00:10:56.904Z,6.90
2019-06-26T00:13:26.734Z,7.13
2019-06-26T00:15:53.111Z,6.83
2019-06-26T00:18:20.624Z,6.70
2019-06-26T00:20:48.190Z,7.23
2019-06-26T00:23:15.765Z,6.40
2019-06-26T00:25:43.040Z,7.20
2019-06-26T00:28:10.281Z,7.30
2019-06-26T00:30:37.829Z,7.17
2019-06-26T00:33:05.407Z,7.53
2019-06-26T00:35:32.997Z,7.00
2019-06-26T00:38:00.226Z,7.50
2019-06-26T00:40:27.469Z,7.00
2019-06-26T00:42:54.696Z,7.60
2019-06-26T00:45:21.959Z,7.43
2019-06-26T00:47:49.172Z,6.87
2019-06-26T00:50:16.513Z,7.27
2019-06-26T00:52:43.790Z,7.57
2019-06-26T00:55:11.060Z,7.00
2019-06-26T00:57:38.634Z,7.40
2019-06-26T01:00:10.617Z,7.70
2019-06-26T01:02:38.145Z,8.03
2019-06-26T01:05:08.543Z,8.03
2019-06-26T01:07:35.790Z,7.47
2019-06-26T01:10:04.603Z,7.83
2019-06-26T01:12:31.849Z,7.60
2019-06-26T01:14:59.072Z,8.17
2019-06-26T01:17:26.332Z,7.53
2019-06-26T01:19:53.578Z,8.13
2019-06-26T01:22:20.825Z,7.43
2019-06-26T01:24:48.063Z,7.50
2019-06-26T01:27:15.324Z,8.40
2019-06-26T01:29:42.543Z,8.60
2019-06-26T01:32:09.786Z,9.17
2019-06-26T01:34:37.031Z,9.50
2019-06-26T01:37:04.243Z,9.00
2019-06-26T01:39:31.483Z,9.73
2019-06-26T01:41:58.691Z,9.87
2019-06-26T01:44:25.940Z,10.10
2019-06-26T01:46:53.152Z,10.83
2019-06-26T01:49:20.361Z,10.63
2019-06-26T01:51:47.596Z,12.23
2019-06-26T01:54:14.847Z,12.73
2019-06-26T01:56:42.060Z,14.47
2019-06-26T01:59:09.313Z,13.53
2019-06-26T02:01:36.528Z,14.60
2019-06-26T02:04:03.785Z,15.37
2019-06-26T02:06:31.328Z,14.10
2019-06-26T02:08:58.648Z,15.20
2019-06-26T02:11:26.145Z,15.50
2019-06-26T02:13:53.708Z,16.10
2019-06-26T02:16:21.277Z,15.03
2019-06-26T02:18:50.165Z,14.97
2019-06-26T02:21:17.390Z,16.00
2019-06-26T02:23:44.645Z,15.93
2019-06-26T02:26:11.869Z,17.23
2019-06-26T02:28:39.122Z,17.23
2019-06-26T02:31:06.370Z,15.60
2019-06-26T02:33:33.842Z,15.87
2019-06-26T02:36:04.796Z,15.90
2019-06-26T02:38:32.020Z,17.17
2019-06-26T02:40:59.695Z,16.30
2019-06-26T02:43:26.924Z,17.37
2019-06-26T02:45:54.511Z,18.10
2019-06-26T02:48:21.728Z,19.20
2019-06-26T02:50:48.979Z,21.03
2019-06-26T02:53:16.189Z,21.67
2019-06-26T02:55:43.450Z,20.90
2019-06-26T02:58:10.692Z,21.43
2019-06-26T03:00:37.950Z,21.40
2019-06-26T03:03:05.176Z,22.70
2019-06-26T03:05:32.427Z,22.20
2019-06-26T03:07:59.649Z,22.10
2019-06-26T03:10:26.898Z,22.47
2019-06-26T03:12:54.146Z,22.90
2019-06-26T03:15:21.400Z,22.33
2019-06-26T03:17:55.485Z,23.63
2019-06-26T03:20:19.123Z,23.20
2019-06-26T03:22:46.405Z,23.67
2019-06-26T03:25:13.686Z,24.27
2019-06-26T03:27:40.941Z,25.57
2019-06-26T03:30:08.270Z,24.83
2019-06-26T03:32:35.896Z,24.40
2019-06-26T03:35:03.142Z,24.63
2019-06-26T03:37:30.382Z,26.80
2019-06-26T03:39:57.626Z,27.50
2019-06-26T03:42:24.881Z,28.40
2019-06-26T03:44:52.155Z,28.37
2019-06-26T03:47:19.384Z,29.60
2019-06-26T03:49:46.623Z,30.97
2019-06-26T03:52:14.149Z,29.77
2019-06-26T03:54:41.720Z,30.33
2019-06-26T03:57:08.941Z,31.77
2019-06-26T03:59:36.185Z,31.50
2019-06-26T04:02:03.410Z,31.00
2019-06-26T04:04:30.659Z,32.67
2019-06-26T04:06:58.218Z,33.27
2019-06-26T04:09:25.775Z,31.27
2019-06-26T04:11:53.020Z,33.40
2019-06-26T04:14:20.602Z,31.43
2019-06-26T04:16:48.177Z,31.23
2019-06-26T04:19:15.739Z,30.87
2019-06-26T04:21:43.046Z,31.87
2019-06-26T04:24:10.549Z,31.90
2019-06-26T04:26:37.775Z,30.90
2019-06-26T04:29:05.016Z,31.43
2019-06-26T04:31:32.516Z,30.43
2019-06-26T04:34:00.087Z,31.43
2019-06-26T04:36:27.669Z,31.97
2019-06-26T04:38:55.217Z,30.90
2019-06-26T04:41:22.787Z,32.10
2019-06-26T04:43:50.345Z,31.87
2019-06-26T04:46:17.564Z,30.10
2019-06-26T04:48:45.072Z,29.67
2019-06-26T04:51:12.628Z,30.33
2019-06-26T04:53:39.888Z,31.37
2019-06-26T04:56:07.455Z,30.13
2019-06-26T04:58:35.020Z,30.87
2019-06-26T05:01:02.620Z,32.03
2019-06-26T05:03:30.151Z,29.37
2019-06-26T05:05:57.395Z,30.83
2019-06-26T05:08:24.611Z,29.23
2019-06-26T05:10:51.860Z,31.13
2019-06-26T05:13:19.076Z,30.50
2019-06-26T05:15:46.322Z,30.30
2019-06-26T05:18:13.548Z,30.80
2019-06-26T05:20:40.797Z,31.63
2019-06-26T05:23:08.308Z,33.13
2019-06-26T05:25:35.804Z,31.63
2019-06-26T05:28:03.056Z,29.30
2019-06-26T05:30:30.297Z,29.53
2019-06-26T05:32:57.861Z,29.40
2019-06-26T05:35:25.417Z,29.67
2019-06-26T05:37:52.995Z,27.67
2019-06-26T05:40:20.854Z,29.10
2019-06-26T05:42:48.098Z,27.77
2019-06-26T05:45:15.705Z,26.93
2019-06-26T05:47:43.001Z,25.67
2019-06-26T05:50:10.990Z,25.53
2019-06-26T05:52:42.278Z,26.70
2019-06-26T05:55:07.980Z,25.73
2019-06-26T05:57:35.543Z,25.13
2019-06-26T06:00:04.857Z,25.60
2019-06-26T06:02:32.413Z,25.00
2019-06-26T06:04:59.978Z,24.97
2019-06-26T06:07:27.547Z,25.47
2019-06-26T06:09:54.760Z,25.47
2019-06-26T06:12:22.387Z,23.95
2019-06-26T06:14:49.691Z,24.70
2019-06-26T06:17:17.189Z,23.17
2019-06-26T06:19:44.433Z,24.15
2019-06-26T06:22:11.686Z,23.62
2019-06-26T06:24:38.901Z,23.90
2019-06-26T06:27:06.115Z,23.07
2019-06-26T06:29:33.358Z,22.70
2019-06-26T06:32:00.575Z,21.68
2019-06-26T06:34:27.814Z,22.05
2019-06-26T06:36:55.029Z,22.80
2019-06-26T06:39:22.628Z,21.95
2019-06-26T06:41:50.218Z,22.15
2019-06-26T06:44:17.496Z,24.02
2019-06-26T06:46:44.768Z,23.47
2019-06-26T06:49:12.008Z,24.10
2019-06-26T06:51:39.582Z,23.50
2019-06-26T06:54:06.817Z,23.57
2019-06-26T06:56:34.336Z,21.17
2019-06-26T06:59:01.897Z,21.23
2019-06-26T07:01:29.460Z,21.95
2019-06-26T07:03:56.716Z,20.82
2019-06-26T07:06:24.297Z,20.43
2019-06-26T07:08:51.568Z,19.32
2019-06-26T07:11:19.132Z,18.32
2019-06-26T07:13:46.369Z,20.43
2019-06-26T07:16:13.616Z,19.75
2019-06-26T07:18:40.871Z,18.20
2019-06-26T07:21:08.182Z,16.00
2019-06-26T07:23:35.404Z,17.98
2019-06-26T07:26:02.651Z,18.70
2019-06-26T07:28:29.874Z,17.20
2019-06-26T07:30:57.125Z,17.87
2019-06-26T07:33:24.358Z,18.12
2019-06-26T07:35:51.603Z,16.70
2019-06-26T07:38:19.148Z,17.92
2019-06-26T07:40:46.728Z,18.90
2019-06-26T07:43:16.422Z,17.70
2019-06-26T07:45:42.920Z,17.42
2019-06-26T07:48:10.217Z,17.60
2019-06-26T07:50:37.482Z,17.00
2019-06-26T07:53:04.975Z,18.50
2019-06-26T07:55:32.308Z,14.40
2019-06-26T07:57:59.570Z,15.98
2019-06-26T08:00:26.878Z,16.48
2019-06-26T08:02:54.389Z,16.45
2019-06-26T08:05:21.953Z,16.35
2019-06-26T08:07:49.513Z,15.53
2019-06-26T08:10:16.810Z,14.45
2019-06-26T08:12:44.339Z,12.37
2019-06-26T08:15:11.721Z,13.10
2019-06-26T08:17:38.981Z,13.15
2019-06-26T08:20:07.152Z,13.28
2019-06-26T08:22:34.698Z,12.82
2019-06-26T08:25:01.962Z,12.45
2019-06-26T08:27:29.422Z,10.72
2019-06-26T08:29:56.994Z,10.13
2019-06-26T08:32:26.028Z,9.53
2019-06-26T08:34:53.305Z,10.50
2019-06-26T08:37:20.620Z,10.53
2019-06-26T08:39:47.875Z,10.65
2019-06-26T08:42:15.442Z,10.70
2019-06-26T08:44:43.084Z,9.70
2019-06-26T08:47:10.325Z,9.73
2019-06-26T08:49:37.817Z,9.88
2019-06-26T08:52:05.341Z,9.68
2019-06-26T08:54:32.842Z,9.18
2019-06-26T08:57:00.268Z,9.33
2019-06-26T08:59:27.605Z,9.78
2019-06-26T09:01:54.826Z,8.35
2019-06-26T09:04:22.086Z,8.00
2019-06-26T09:06:49.313Z,7.62
2019-06-26T09:09:16.893Z,7.67
2019-06-26T09:11:44.137Z,8.30
2019-06-26T09:14:11.625Z,7.70
2019-06-26T09:16:39.178Z,8.43
2019-06-26T09:19:06.433Z,7.92
2019-06-26T09:21:33.916Z,8.08
2019-06-26T09:24:01.901Z,7.90
2019-06-26T09:26:29.444Z,7.87
2019-06-26T09:28:56.770Z,9.05
2019-06-26T09:31:23.975Z,8.65
2019-06-26T09:33:51.208Z,8.08
2019-06-26T09:36:18.796Z,7.80
2019-06-26T09:38:46.339Z,7.90
2019-06-26T09:41:13.554Z,7.60
2019-06-26T09:43:40.800Z,7.40
2019-06-26T09:46:08.016Z,7.20
2019-06-26T09:48:51.161Z,6.60
2019-06-26T09:51:04.283Z,8.23
2019-06-26T09:53:46.026Z,8.35
2019-06-26T09:56:00.453Z,7.67
2019-06-26T09:58:27.685Z,7.47
2019-06-26T10:00:54.973Z,7.00
2019-06-26T10:03:22.185Z,7.60
2019-06-26T10:05:49.380Z,7.20
2019-06-26T10:08:16.652Z,7.37
2019-06-26T10:10:43.900Z,6.97
2019-06-26T10:13:11.120Z,7.92
2019-06-26T10:15:38.411Z,7.53
2019-06-26T10:18:06.054Z,8.05
2019-06-26T10:20:33.315Z,8.15
2019-06-26T10:23:00.518Z,8.23
2019-06-26T10:25:28.125Z,10.05
2019-06-26T10:27:55.364Z,9.53
2019-06-26T10:30:22.689Z,9.93
2019-06-26T10:32:49.908Z,10.28
2019-06-26T10:35:17.419Z,8.80
2019-06-26T10:37:44.730Z,9.25
2019-06-26T10:40:15.981Z,9.65
2019-06-26T10:42:41.109Z,9.90
2019-06-26T10:45:08.814Z,10.58
2019-06-26T10:47:39.519Z,10.63
2019-06-26T10:50:05.738Z,10.25
2019-06-26T10:52:33.012Z,8.85
2019-06-26T10:55:00.300Z,11.83
2019-06-26T10:57:27.805Z,12.30
2019-06-26T10:59:56.013Z,10.72
2019-06-26T11:02:23.648Z,12.15
2019-06-26T11:04:51.209Z,12.60
2019-06-26T11:07:18.664Z,11.20
2019-06-26T11:09:45.922Z,11.25
2019-06-26T11:12:13.171Z,10.48
2019-06-26T11:14:40.401Z,10.60
2019-06-26T11:17:07.722Z,9.80
2019-06-26T11:19:43.926Z,8.90
2019-06-26T11:22:03.969Z,7.80
2019-06-26T11:24:31.200Z,7.28
2019-06-26T11:26:58.786Z,7.40
2019-06-26T11:29:26.004Z,6.58
2019-06-26T11:31:53.249Z,6.47
2019-06-26T11:34:20.468Z,6.00
2019-06-26T11:37:02.647Z,5.67
2019-06-26T11:39:16.683Z,5.00
2019-06-26T11:41:43.934Z,6.25
2019-06-26T11:44:11.153Z,6.25
2019-06-26T11:46:38.678Z,5.58
2019-06-26T11:49:05.948Z,6.20
2019-06-26T11:51:33.500Z,5.72
2019-06-26T11:54:02.200Z,5.50
2019-06-26T11:56:29.765Z,5.55
2019-06-26T11:58:57.321Z,5.08
2019-06-26T12:01:24.588Z,5.83
2019-06-26T12:03:51.832Z,5.40
2019-06-26T12:06:19.486Z,5.42
2019-06-26T12:08:47.152Z,5.78
2019-06-26T12:11:14.409Z,5.70
2019-06-26T12:13:41.630Z,6.00
2019-06-26T12:16:08.885Z,5.97
2019-06-26T12:18:36.101Z,5.90
2019-06-26T12:21:03.340Z,5.60
2019-06-26T12:23:30.944Z,6.37
2019-06-26T12:25:58.192Z,6.03
2019-06-26T12:28:25.744Z,5.40
2019-06-26T12:30:53.319Z,5.47
2019-06-26T12:33:20.876Z,7.30
2019-06-26T12:35:48.133Z,7.00
2019-06-26T12:38:15.608Z,9.13
2019-06-26T12:40:42.869Z,9.65
2019-06-26T12:43:10.416Z,8.65
2019-06-26T12:45:37.675Z,8.45
2019-06-26T12:48:05.253Z,8.53
2019-06-26T12:50:35.847Z,8.63
2019-06-26T12:53:01.749Z,8.60
2019-06-26T12:55:32.723Z,8.50
2019-06-26T12:58:11.920Z,9.78
2019-06-26T13:00:26.920Z,9.23
2019-06-26T13:02:54.413Z,8.48
2019-06-26T13:05:22.268Z,8.68
2019-06-26T13:07:50.560Z,6.10
2019-06-26T13:10:18.130Z,6.50
2019-06-26T13:12:46.051Z,6.85
2019-06-26T13:15:14.002Z,9.30
2019-06-26T13:17:41.564Z,9.10
2019-06-26T13:20:10.418Z,9.53
2019-06-26T13:22:38.215Z,9.73
2019-06-26T13:25:06.124Z,10.03
2019-06-26T13:27:33.648Z,9.45
2019-06-26T13:30:01.548Z,9.73
2019-06-26T13:32:29.076Z,9.60
2019-06-26T13:34:56.641Z,9.00
2019-06-26T13:37:24.225Z,9.00
2019-06-26T13:39:51.772Z,9.23
2019-06-26T13:42:19.648Z,9.45
2019-06-26T13:44:46.858Z,8.83
2019-06-26T13:47:14.361Z,9.73
2019-06-26T13:49:41.928Z,10.23
2019-06-26T13:52:09.178Z,10.05
2019-06-26T13:54:36.396Z,8.83
2019-06-26T13:57:04.636Z,9.25
2019-06-26T13:59:31.876Z,8.40
2019-06-26T14:01:59.104Z,8.80
2019-06-26T14:04:26.353Z,7.92
2019-06-26T14:06:53.577Z,8.23
2019-06-26T14:09:20.816Z,8.50
2019-06-26T14:11:48.085Z,8.93
2019-06-26T14:14:15.301Z,9.25
2019-06-26T14:16:42.650Z,8.75
2019-06-26T14:19:09.978Z,9.60
2019-06-26T14:21:37.509Z,10.00
2019-06-26T14:24:04.759Z,9.90
2019-06-26T14:26:31.973Z,10.88
2019-06-26T14:28:59.235Z,9.85
2019-06-26T14:31:26.465Z,10.82
2019-06-26T14:33:53.707Z,10.65
2019-06-26T14:36:23.227Z,10.85
2019-06-26T14:38:50.258Z,10.88
2019-06-26T14:41:17.479Z,10.35
2019-06-26T14:43:45.000Z,10.35
2019-06-26T14:46:12.289Z,10.78
2019-06-26T14:48:39.556Z,11.45
2019-06-26T14:51:07.752Z,11.45
2019-06-26T14:53:35.009Z,11.22
2019-06-26T14:56:02.245Z,12.03
2019-06-26T14:58:29.468Z,12.05
2019-06-26T15:00:56.716Z,11.38
2019-06-26T15:03:23.941Z,11.10
2019-06-26T15:05:51.200Z,11.50
2019-06-26T15:08:18.448Z,11.97
2019-06-26T15:10:45.807Z,12.10
2019-06-26T15:13:13.392Z,11.60
2019-06-26T15:15:40.972Z,10.55
2019-06-26T15:18:10.173Z,11.83
2019-06-26T15:20:37.727Z,10.68
2019-06-26T15:23:04.985Z,10.05
2019-06-26T15:25:32.297Z,10.48
2019-06-26T15:27:59.609Z,10.40
2019-06-26T15:30:26.853Z,9.88
2019-06-26T15:32:54.325Z,10.20
2019-06-26T15:35:21.887Z,9.33
2019-06-26T15:37:49.137Z,9.93
2019-06-26T15:40:16.728Z,9.80
2019-06-26T15:42:44.045Z,8.25
2019-06-26T15:45:12.349Z,8.35
2019-06-26T15:47:39.919Z,7.80
2019-06-26T15:50:10.644Z,8.70
2019-06-26T15:52:36.560Z,7.83
2019-06-26T15:55:05.332Z,7.55
2019-06-26T15:57:32.587Z,7.05
2019-06-26T16:00:00.123Z,6.85
2019-06-26T16:02:27.429Z,7.05
2019-06-26T16:04:55.037Z,6.97
2019-06-26T16:07:22.235Z,6.65
2019-06-26T16:09:49.484Z,6.50
2019-06-26T16:12:16.713Z,6.42
2019-06-26T16:14:43.960Z,6.12
2019-06-26T16:17:19.030Z,6.10
2019-06-26T16:19:46.271Z,6.62
2019-06-26T16:22:13.823Z,7.40
2019-06-26T16:24:41.132Z,7.90
2019-06-26T16:27:08.642Z,7.95
2019-06-26T16:29:35.868Z,9.03
2019-06-26T16:32:03.149Z,8.88
2019-06-26T16:34:30.373Z,7.78
2019-06-26T16:36:57.891Z,9.35
2019-06-26T16:39:25.188Z,10.35
2019-06-26T16:41:52.689Z,11.00
2019-06-26T16:44:21.164Z,11.22
2019-06-26T16:46:48.404Z,10.48
2019-06-26T16:49:16.002Z,11.00
2019-06-26T16:51:43.256Z,10.75
2019-06-26T16:54:10.524Z,11.20
2019-06-26T16:56:37.904Z,11.68
2019-06-26T16:59:05.198Z,12.10
2019-06-26T17:01:32.445Z,10.70
2019-06-26T17:03:59.704Z,10.30
2019-06-26T17:06:26.938Z,10.13
2019-06-26T17:08:54.268Z,10.32
2019-06-26T17:11:21.550Z,9.55
2019-06-26T17:13:48.776Z,9.40
2019-06-26T17:16:16.037Z,9.10
2019-06-26T17:18:43.611Z,8.10
2019-06-26T17:21:11.268Z,7.90
2019-06-26T17:23:38.480Z,7.60
2019-06-26T17:26:05.981Z,7.83
2019-06-26T17:28:33.444Z,7.03
2019-06-26T17:31:02.371Z,6.62
2019-06-26T17:33:30.053Z,6.75
2019-06-26T17:35:57.575Z,7.12
2019-06-26T17:38:25.143Z,7.20
2019-06-26T17:40:52.404Z,7.67
2019-06-26T17:43:19.956Z,9.00
2019-06-26T17:45:47.213Z,8.95
2019-06-26T17:48:14.432Z,8.85
2019-06-26T17:50:41.941Z,8.95
2019-06-26T17:53:21.021Z,8.40
2019-06-26T17:55:38.147Z,8.83
2019-06-26T17:58:05.374Z,8.63
2019-06-26T18:00:35.566Z,8.98
2019-06-26T18:03:02.789Z,8.98
2019-06-26T18:05:30.291Z,8.45
2019-06-26T18:07:57.946Z,8.88
2019-06-26T18:10:25.520Z,9.43
2019-06-26T18:12:53.094Z,9.60
2019-06-26T18:15:20.653Z,9.03
2019-06-26T18:17:48.156Z,10.32
2019-06-26T18:20:15.780Z,10.82
2019-06-26T18:22:43.348Z,10.78
2019-06-26T18:25:10.669Z,11.12
2019-06-26T18:27:38.169Z,10.48
2019-06-26T18:30:06.660Z,11.50
2019-06-26T18:32:34.232Z,10.08
2019-06-26T18:35:02.103Z,11.78
2019-06-26T18:37:29.658Z,11.73
2019-06-26T18:39:56.909Z,11.93
2019-06-26T18:42:24.138Z,10.43
2019-06-26T18:44:51.384Z,10.63
2019-06-26T18:47:18.633Z,10.93
2019-06-26T18:49:46.152Z,9.70
2019-06-26T18:52:13.395Z,9.78
2019-06-26T18:54:40.881Z,9.40
2019-06-26T18:57:08.438Z,9.40
2019-06-26T18:59:36.010Z,10.28
2019-06-26T19:02:03.290Z,8.90
2019-06-26T19:04:30.509Z,8.73
2019-06-26T19:06:57.756Z,9.15
2019-06-26T19:09:24.997Z,8.63
2019-06-26T19:11:52.213Z,9.13
2019-06-26T19:14:19.750Z,8.90
2019-06-26T19:16:47.340Z,8.78
2019-06-26T19:19:14.599Z,8.80
2019-06-26T19:21:41.822Z,8.23
2019-06-26T19:24:10.481Z,8.48
2019-06-26T19:26:38.515Z,8.95
2019-06-26T19:29:05.741Z,8.63
2019-06-26T19:31:32.987Z,8.43
2019-06-26T19:34:00.487Z,8.58
2019-06-26T19:36:28.833Z,8.95
2019-06-26T19:38:56.581Z,9.00
2019-06-26T19:41:24.185Z,8.90
2019-06-26T19:43:51.443Z,9.55
2019-06-26T19:46:18.655Z,8.95
2019-06-26T19:48:46.173Z,9.40
2019-06-26T19:51:13.424Z,9.53
2019-06-26T19:53:40.675Z,9.48
2019-06-26T19:56:08.250Z,9.10
2019-06-26T19:58:35.470Z,9.93
2019-06-26T20:01:02.781Z,10.10
2019-06-26T20:03:30.364Z,10.10
2019-06-26T20:05:57.990Z,9.90
2019-06-26T20:08:25.460Z,10.20
2019-06-26T20:10:52.713Z,9.70
2019-06-26T20:13:20.003Z,10.10
2019-06-26T20:15:47.274Z,10.47
2019-06-26T20:18:14.484Z,9.93
2019-06-26T20:20:41.742Z,9.60
2019-06-26T20:23:08.960Z,10.10
2019-06-26T20:25:36.465Z,9.57
2019-06-26T20:28:04.045Z,8.67
2019-06-26T20:30:32.721Z,9.07
2019-06-26T20:33:00.419Z,9.00
2019-06-26T20:35:27.702Z,9.03
2019-06-26T20:37:54.947Z,8.23
2019-06-26T20:40:22.464Z,8.20
2019-06-26T20:42:50.055Z,8.13
2019-06-26T20:45:17.327Z,8.03
2019-06-26T20:47:44.559Z,8.60
2019-06-26T20:50:11.775Z,8.80
2019-06-26T20:52:39.367Z,8.17
2019-06-26T20:55:06.675Z,7.87
2019-06-26T20:57:33.890Z,8.67
2019-06-26T21:00:02.165Z,8.27
2019-06-26T21:02:29.403Z,7.97
2019-06-26T21:04:56.943Z,7.53
2019-06-26T21:07:24.557Z,8.10
2019-06-26T21:09:52.119Z,7.13
2019-06-26T21:12:19.373Z,7.30
2019-06-26T21:14:46.600Z,7.67
2019-06-26T21:17:13.833Z,7.50
2019-06-26T21:19:41.353Z,7.47
2019-06-26T21:22:09.111Z,6.37
2019-06-26T21:24:36.648Z,6.93
2019-06-26T21:27:04.142Z,7.07
2019-06-26T21:29:31.433Z,6.90
2019-06-26T21:31:58.679Z,7.30
2019-06-26T21:34:25.932Z,6.60
2019-06-26T21:36:53.190Z,6.87
2019-06-26T21:39:20.752Z,6.97
2019-06-26T21:41:48.333Z,7.10
2019-06-26T21:44:15.562Z,7.00
2019-06-26T21:46:42.775Z,6.47
2019-06-26T21:49:10.288Z,6.97
2019-06-26T21:51:37.762Z,6.57
2019-06-26T21:54:05.312Z,6.37
2019-06-26T21:56:32.881Z,6.27
2019-06-26T21:59:00.095Z,6.57
2019-06-26T22:01:27.525Z,6.57
2019-06-26T22:03:54.736Z,6.80
2019-06-26T22:06:22.049Z,5.87
2019-06-26T22:08:49.317Z,6.43
2019-06-26T22:11:16.661Z,6.67
2019-06-26T22:13:43.905Z,6.87
2019-06-26T22:16:11.143Z,6.17
2019-06-26T22:18:38.394Z,6.33
2019-06-26T22:21:05.677Z,6.10
2019-06-26T22:23:32.918Z,6.50
2019-06-26T22:26:00.218Z,5.80
2019-06-26T22:28:27.463Z,6.10
2019-06-26T22:30:54.676Z,6.00
2019-06-26T22:33:21.926Z,5.97
2019-06-26T22:35:49.190Z,6.40
2019-06-26T22:38:16.432Z,5.50
2019-06-26T22:40:43.987Z,5.60
2019-06-26T22:43:11.227Z,6.47
2019-06-26T22:45:38.521Z,6.57
2019-06-26T22:48:05.760Z,5.80
2019-06-26T22:50:32.987Z,6.60
2019-06-26T22:53:00.247Z,6.07
2019-06-26T22:55:27.470Z,5.90
2019-06-26T22:57:54.719Z,5.87
2019-06-26T23:00:21.951Z,6.17
2019-06-26T23:02:49.206Z,5.33
2019-06-26T23:05:16.825Z,5.63
2019-06-26T23:07:44.379Z,6.20
2019-06-26T23:10:12.006Z,5.63
2019-06-26T23:12:40.210Z,5.70
2019-06-26T23:15:07.728Z,5.90
2019-06-26T23:17:34.946Z,5.50
2019-06-26T23:20:02.457Z,5.77
2019-06-26T23:22:29.950Z,5.80
2019-06-26T23:24:57.437Z,5.40
2019-06-26T23:27:25.003Z,5.53
2019-06-26T23:29:52.252Z,5.53
2019-06-26T23:32:19.829Z,5.10
2019-06-26T23:34:47.405Z,5.63
2019-06-26T23:37:14.622Z,5.37
2019-06-26T23:39:41.873Z,5.57
2019-06-26T23:42:09.097Z,6.00
2019-06-26T23:44:36.625Z,5.37
2019-06-26T23:47:03.871Z,5.47
2019-06-26T23:49:31.442Z,5.57
2019-06-26T23:51:58.692Z,5.87
2019-06-26T23:54:25.918Z,5.47
2019-06-26T23:56:53.161Z,5.10
2019-06-26T23:59:20.416Z,5.13
